sensor_id;sensor_type;location;lat;lon;timestamp;pressure;altitude;pressure_sealevel;temperature;humidity
13952;BME280;39535;52.192;9.886;2023-07-29T00:01:43;99692.34;;;20.49;91.77
13952;BME280;39535;52.192;9.886;2023-07-29T00:04:11;99688.94;;;20.47;92.02
13952;BME280;39535;52.192;9.886;2023-07-29T00:06:37;99696.78;;;20.49;91.45
13952;BME280;39535;52.192;9.886;2023-07-29T00:09:04;99705.72;;;20.48;91.37
13952;BME280;39535;52.192;9.886;2023-07-29T00:11:30;99699.91;;;20.42;91.73
13952;BME280;39535;52.192;9.886;2023-07-29T00:13:58;99698.09;;;20.43;91.83
13952;BME280;39535;52.192;9.886;2023-07-29T00:16:26;99710.69;;;20.39;91.76
13952;BME280;39535;52.192;9.886;2023-07-29T00:18:53;99711.69;;;20.38;91.80
13952;BME280;39535;52.192;9.886;2023-07-29T00:21:19;99716.59;;;20.32;92.08
13952;BME280;39535;52.192;9.886;2023-07-29T00:23:46;99701.50;;;20.32;92.35
13952;BME280;39535;52.192;9.886;2023-07-29T00:26:12;99698.34;;;20.27;92.49
13952;BME280;39535;52.192;9.886;2023-07-29T00:28:39;99697.69;;;20.23;92.74
13952;BME280;39535;52.192;9.886;2023-07-29T00:31:05;99698.66;;;20.22;92.62
13952;BME280;39535;52.192;9.886;2023-07-29T00:33:33;99687.44;;;20.19;92.64
13952;BME280;39535;52.192;9.886;2023-07-29T00:35:59;99710.34;;;20.20;92.65
13952;BME280;39535;52.192;9.886;2023-07-29T00:38:27;99702.50;;;20.18;92.32
13952;BME280;39535;52.192;9.886;2023-07-29T00:40:53;99698.28;;;20.16;92.67
13952;BME280;39535;52.192;9.886;2023-07-29T00:43:19;99697.63;;;20.12;92.61
13952;BME280;39535;52.192;9.886;2023-07-29T00:45:46;99698.06;;;20.06;92.70
13952;BME280;39535;52.192;9.886;2023-07-29T00:48:13;99688.75;;;20.00;93.09
13952;BME280;39535;52.192;9.886;2023-07-29T00:50:41;99682.47;;;20.01;93.32
13952;BME280;39535;52.192;9.886;2023-07-29T00:53:08;99689.69;;;19.99;92.96
13952;BME280;39535;52.192;9.886;2023-07-29T00:55:34;99688.09;;;19.97;93.13
13952;BME280;39535;52.192;9.886;2023-07-29T00:58:01;99684.63;;;19.96;93.20
13952;BME280;39535;52.192;9.886;2023-07-29T01:00:27;99677.72;;;19.94;93.05
13952;BME280;39535;52.192;9.886;2023-07-29T01:02:54;99691.19;;;19.91;93.19
13952;BME280;39535;52.192;9.886;2023-07-29T01:05:20;99684.50;;;19.85;93.32
13952;BME280;39535;52.192;9.886;2023-07-29T01:07:51;99674.03;;;19.83;93.47
13952;BME280;39535;52.192;9.886;2023-07-29T01:10:30;99676.56;;;19.85;93.16
13952;BME280;39535;52.192;9.886;2023-07-29T01:13:01;99675.94;;;19.81;93.20
13952;BME280;39535;52.192;9.886;2023-07-29T01:15:36;99666.41;;;19.79;93.58
13952;BME280;39535;52.192;9.886;2023-07-29T01:18:08;99662.03;;;19.78;93.72
13952;BME280;39535;52.192;9.886;2023-07-29T01:20:39;99656.97;;;19.75;93.84
13952;BME280;39535;52.192;9.886;2023-07-29T01:23:07;99671.16;;;19.74;93.60
13952;BME280;39535;52.192;9.886;2023-07-29T01:25:35;99671.91;;;19.76;93.57
13952;BME280;39535;52.192;9.886;2023-07-29T01:28:02;99666.00;;;19.72;93.60
13952;BME280;39535;52.192;9.886;2023-07-29T01:30:30;99661.63;;;19.71;94.03
13952;BME280;39535;52.192;9.886;2023-07-29T01:33:02;99660.31;;;19.64;93.99
13952;BME280;39535;52.192;9.886;2023-07-29T01:35:33;99658.75;;;19.61;94.02
13952;BME280;39535;52.192;9.886;2023-07-29T01:38:05;99645.50;;;19.61;94.09
13952;BME280;39535;52.192;9.886;2023-07-29T01:40:33;99643.19;;;19.57;94.48
13952;BME280;39535;52.192;9.886;2023-07-29T01:43:01;99651.13;;;19.57;94.35
13952;BME280;39535;52.192;9.886;2023-07-29T01:45:28;99645.00;;;19.56;94.82
13952;BME280;39535;52.192;9.886;2023-07-29T01:47:57;99642.34;;;19.56;94.60
13952;BME280;39535;52.192;9.886;2023-07-29T01:50:23;99641.72;;;19.53;94.93
13952;BME280;39535;52.192;9.886;2023-07-29T01:52:50;99627.84;;;19.49;95.28
13952;BME280;39535;52.192;9.886;2023-07-29T01:55:16;99620.09;;;19.46;95.78
13952;BME280;39535;52.192;9.886;2023-07-29T01:57:43;99614.78;;;19.46;95.75
13952;BME280;39535;52.192;9.886;2023-07-29T02:00:11;99615.88;;;19.43;96.17
13952;BME280;39535;52.192;9.886;2023-07-29T02:02:38;99613.22;;;19.43;96.24
13952;BME280;39535;52.192;9.886;2023-07-29T02:05:05;99613.03;;;19.47;96.33
13952;BME280;39535;52.192;9.886;2023-07-29T02:07:31;99611.09;;;19.49;96.49
13952;BME280;39535;52.192;9.886;2023-07-29T02:09:58;99604.94;;;19.48;96.72
13952;BME280;39535;52.192;9.886;2023-07-29T02:12:24;99594.34;;;19.48;96.81
13952;BME280;39535;52.192;9.886;2023-07-29T02:14:51;99573.19;;;19.48;97.07
13952;BME280;39535;52.192;9.886;2023-07-29T02:17:18;99563.03;;;19.42;98.07
13952;BME280;39535;52.192;9.886;2023-07-29T02:19:45;99560.38;;;19.42;98.47
13952;BME280;39535;52.192;9.886;2023-07-29T02:22:13;99562.94;;;19.43;98.41
13952;BME280;39535;52.192;9.886;2023-07-29T02:24:40;99562.94;;;19.43;98.40
13952;BME280;39535;52.192;9.886;2023-07-29T02:27:06;99560.19;;;19.45;98.46
13952;BME280;39535;52.192;9.886;2023-07-29T02:29:33;99553.31;;;19.42;98.75
13952;BME280;39535;52.192;9.886;2023-07-29T02:31:59;99551.41;;;19.44;98.48
13952;BME280;39535;52.192;9.886;2023-07-29T02:34:27;99546.09;;;19.44;99.09
13952;BME280;39535;52.192;9.886;2023-07-29T02:36:53;99537.28;;;19.44;99.31
13952;BME280;39535;52.192;9.886;2023-07-29T02:39:20;99539.00;;;19.45;99.69
13952;BME280;39535;52.192;9.886;2023-07-29T02:41:47;99548.53;;;19.48;99.02
13952;BME280;39535;52.192;9.886;2023-07-29T02:44:13;99546.59;;;19.50;99.40
13952;BME280;39535;52.192;9.886;2023-07-29T02:46:39;99551.91;;;19.50;99.63
13952;BME280;39535;52.192;9.886;2023-07-29T02:49:06;99551.06;;;19.49;99.97
13952;BME280;39535;52.192;9.886;2023-07-29T02:51:34;99554.56;;;19.50;99.61
13952;BME280;39535;52.192;9.886;2023-07-29T02:54:00;99559.22;;;19.46;99.64
13952;BME280;39535;52.192;9.886;2023-07-29T02:56:26;99562.00;;;19.44;99.79
13952;BME280;39535;52.192;9.886;2023-07-29T02:58:53;99558.16;;;19.49;100.00
13952;BME280;39535;52.192;9.886;2023-07-29T03:01:19;99559.00;;;19.49;99.98
13952;BME280;39535;52.192;9.886;2023-07-29T03:03:46;99546.84;;;19.47;100.00
13952;BME280;39535;52.192;9.886;2023-07-29T03:06:14;99555.38;;;19.50;100.00
13952;BME280;39535;52.192;9.886;2023-07-29T03:08:41;99563.22;;;19.52;99.74
13952;BME280;39535;52.192;9.886;2023-07-29T03:11:08;99562.94;;;19.31;100.00
13952;BME280;39535;52.192;9.886;2023-07-29T03:13:35;99558.16;;;19.36;100.00
13952;BME280;39535;52.192;9.886;2023-07-29T03:16:05;99554.16;;;19.43;100.00
13952;BME280;39535;52.192;9.886;2023-07-29T03:18:32;99546.00;;;19.33;100.00
13952;BME280;39535;52.192;9.886;2023-07-29T03:20:58;99532.00;;;19.44;100.00
13952;BME280;39535;52.192;9.886;2023-07-29T03:23:25;99527.13;;;19.51;100.00
13952;BME280;39535;52.192;9.886;2023-07-29T03:25:54;99522.44;;;19.54;100.00
13952;BME280;39535;52.192;9.886;2023-07-29T03:28:23;99524.78;;;19.59;100.00
13952;BME280;39535;52.192;9.886;2023-07-29T03:30:49;99532.19;;;19.54;100.00
13952;BME280;39535;52.192;9.886;2023-07-29T03:33:16;99530.00;;;19.60;100.00
13952;BME280;39535;52.192;9.886;2023-07-29T03:35:42;99532.41;;;19.63;100.00
13952;BME280;39535;52.192;9.886;2023-07-29T03:38:10;99555.78;;;19.70;99.73
13952;BME280;39535;52.192;9.886;2023-07-29T03:40:36;99565.97;;;19.76;99.45
13952;BME280;39535;52.192;9.886;2023-07-29T03:43:04;99582.94;;;19.73;98.78
13952;BME280;39535;52.192;9.886;2023-07-29T03:45:30;99597.00;;;19.61;98.30
13952;BME280;39535;52.192;9.886;2023-07-29T03:47:57;99599.03;;;19.70;98.16
13952;BME280;39535;52.192;9.886;2023-07-29T03:50:23;99601.28;;;19.76;97.93
13952;BME280;39535;52.192;9.886;2023-07-29T03:52:50;99600.09;;;19.80;97.33
13952;BME280;39535;52.192;9.886;2023-07-29T03:55:16;99604.22;;;19.84;96.87
13952;BME280;39535;52.192;9.886;2023-07-29T03:57:43;99610.00;;;19.90;96.71
13952;BME280;39535;52.192;9.886;2023-07-29T04:00:11;99601.97;;;19.91;97.38
13952;BME280;39535;52.192;9.886;2023-07-29T04:02:37;99592.22;;;19.92;97.70
13952;BME280;39535;52.192;9.886;2023-07-29T04:05:05;99596.47;;;19.94;97.34
13952;BME280;39535;52.192;9.886;2023-07-29T04:07:31;99596.56;;;19.93;97.12
13952;BME280;39535;52.192;9.886;2023-07-29T04:09:58;99592.00;;;19.95;97.40
13952;BME280;39535;52.192;9.886;2023-07-29T04:12:24;99583.09;;;19.96;97.98
13952;BME280;39535;52.192;9.886;2023-07-29T04:14:51;99566.25;;;19.97;98.51
13952;BME280;39535;52.192;9.886;2023-07-29T04:17:19;99556.50;;;19.97;98.67
13952;BME280;39535;52.192;9.886;2023-07-29T04:19:45;99560.84;;;19.98;98.63
13952;BME280;39535;52.192;9.886;2023-07-29T04:22:11;99549.53;;;19.96;99.00
13952;BME280;39535;52.192;9.886;2023-07-29T04:24:38;99543.34;;;19.96;99.57
13952;BME280;39535;52.192;9.886;2023-07-29T04:27:05;99539.13;;;19.93;100.00
13952;BME280;39535;52.192;9.886;2023-07-29T04:29:31;99526.63;;;19.95;99.90
13952;BME280;39535;52.192;9.886;2023-07-29T04:31:58;99528.44;;;19.95;100.00
13952;BME280;39535;52.192;9.886;2023-07-29T04:34:25;99544.22;;;19.96;99.32
13952;BME280;39535;52.192;9.886;2023-07-29T04:36:52;99535.31;;;19.97;99.87
13952;BME280;39535;52.192;9.886;2023-07-29T04:39:18;99531.72;;;19.98;99.68
13952;BME280;39535;52.192;9.886;2023-07-29T04:41:45;99515.91;;;19.97;100.00
13952;BME280;39535;52.192;9.886;2023-07-29T04:44:11;99507.97;;;19.97;100.00
13952;BME280;39535;52.192;9.886;2023-07-29T04:46:37;99508.72;;;19.99;100.00
13952;BME280;39535;52.192;9.886;2023-07-29T04:49:04;99500.75;;;19.99;100.00
13952;BME280;39535;52.192;9.886;2023-07-29T04:51:32;99504.13;;;20.01;100.00
13952;BME280;39535;52.192;9.886;2023-07-29T04:53:59;99509.53;;;19.99;100.00
13952;BME280;39535;52.192;9.886;2023-07-29T04:56:25;99523.31;;;20.04;100.00
13952;BME280;39535;52.192;9.886;2023-07-29T04:58:52;99504.13;;;20.01;100.00
13952;BME280;39535;52.192;9.886;2023-07-29T05:01:19;99504.88;;;20.03;100.00
13952;BME280;39535;52.192;9.886;2023-07-29T05:03:45;99514.53;;;20.04;100.00
13952;BME280;39535;52.192;9.886;2023-07-29T05:06:12;99515.84;;;20.10;100.00
13952;BME280;39535;52.192;9.886;2023-07-29T05:08:39;99514.91;;;20.11;100.00
13952;BME280;39535;52.192;9.886;2023-07-29T05:11:06;99512.88;;;20.14;100.00
13952;BME280;39535;52.192;9.886;2023-07-29T05:13:33;99517.34;;;20.14;100.00
13952;BME280;39535;52.192;9.886;2023-07-29T05:16:00;99512.88;;;20.14;100.00
13952;BME280;39535;52.192;9.886;2023-07-29T05:18:26;99506.28;;;20.20;100.00
13952;BME280;39535;52.192;9.886;2023-07-29T05:20:53;99501.31;;;20.15;100.00
13952;BME280;39535;52.192;9.886;2023-07-29T05:23:19;99496.25;;;20.12;100.00
13952;BME280;39535;52.192;9.886;2023-07-29T05:25:47;99477.94;;;20.09;100.00
13952;BME280;39535;52.192;9.886;2023-07-29T05:28:13;99482.28;;;20.10;100.00
13952;BME280;39535;52.192;9.886;2023-07-29T05:30:40;99476.53;;;20.16;100.00
13952;BME280;39535;52.192;9.886;2023-07-29T05:33:06;99477.16;;;20.20;100.00
13952;BME280;39535;52.192;9.886;2023-07-29T05:35:33;99470.75;;;20.22;100.00
13952;BME280;39535;52.192;9.886;2023-07-29T05:38:00;99473.41;;;20.22;100.00
13952;BME280;39535;52.192;9.886;2023-07-29T05:40:26;99469.94;;;20.22;100.00
13952;BME280;39535;52.192;9.886;2023-07-29T05:42:54;99475.09;;;20.23;100.00
13952;BME280;39535;52.192;9.886;2023-07-29T05:45:21;99478.47;;;20.26;100.00
13952;BME280;39535;52.192;9.886;2023-07-29T05:47:47;99482.72;;;20.28;100.00
13952;BME280;39535;52.192;9.886;2023-07-29T05:50:14;99480.16;;;20.27;100.00
13952;BME280;39535;52.192;9.886;2023-07-29T05:52:41;99479.19;;;20.28;100.00
13952;BME280;39535;52.192;9.886;2023-07-29T05:55:08;99481.84;;;20.28;100.00
13952;BME280;39535;52.192;9.886;2023-07-29T05:57:34;99474.75;;;20.28;100.00
13952;BME280;39535;52.192;9.886;2023-07-29T06:00:02;99451.63;;;20.30;100.00
13952;BME280;39535;52.192;9.886;2023-07-29T06:02:29;99441.97;;;20.29;100.00
13952;BME280;39535;52.192;9.886;2023-07-29T06:04:55;99424.53;;;20.27;100.00
13952;BME280;39535;52.192;9.886;2023-07-29T06:07:22;99427.91;;;20.29;100.00
13952;BME280;39535;52.192;9.886;2023-07-29T06:09:48;99426.69;;;20.33;100.00
13952;BME280;39535;52.192;9.886;2023-07-29T06:12:15;99420.66;;;20.31;100.00
13952;BME280;39535;52.192;9.886;2023-07-29T06:14:41;99415.47;;;20.29;100.00
13952;BME280;39535;52.192;9.886;2023-07-29T06:17:09;99419.00;;;20.30;100.00
13952;BME280;39535;52.192;9.886;2023-07-29T06:19:36;99427.06;;;20.28;100.00
13952;BME280;39535;52.192;9.886;2023-07-29T06:22:03;99427.06;;;20.28;100.00
13952;BME280;39535;52.192;9.886;2023-07-29T06:24:30;99425.97;;;20.31;100.00
13952;BME280;39535;52.192;9.886;2023-07-29T06:26:57;99432.00;;;20.33;100.00
13952;BME280;39535;52.192;9.886;2023-07-29T06:29:23;99431.16;;;20.32;100.00
13952;BME280;39535;52.192;9.886;2023-07-29T06:31:50;99433.81;;;20.32;100.00
13952;BME280;39535;52.192;9.886;2023-07-29T06:34:18;99431.88;;;20.34;100.00
13952;BME280;39535;52.192;9.886;2023-07-29T06:36:45;99445.03;;;20.36;100.00
13952;BME280;39535;52.192;9.886;2023-07-29T06:39:11;99445.28;;;20.44;100.00
13952;BME280;39535;52.192;9.886;2023-07-29T06:41:38;99452.16;;;20.47;100.00
13952;BME280;39535;52.192;9.886;2023-07-29T06:44:04;99443.25;;;20.48;100.00
13952;BME280;39535;52.192;9.886;2023-07-29T06:46:31;99417.81;;;20.45;100.00
13952;BME280;39535;52.192;9.886;2023-07-29T06:48:57;99434.34;;;20.49;100.00
13952;BME280;39535;52.192;9.886;2023-07-29T06:51:25;99439.88;;;20.57;100.00
13952;BME280;39535;52.192;9.886;2023-07-29T06:53:52;99437.66;;;20.63;100.00
13952;BME280;39535;52.192;9.886;2023-07-29T06:56:18;99437.13;;;20.58;100.00
13952;BME280;39535;52.192;9.886;2023-07-29T06:58:45;99463.56;;;20.60;100.00
13952;BME280;39535;52.192;9.886;2023-07-29T07:01:11;99464.41;;;20.60;100.00
13952;BME280;39535;52.192;9.886;2023-07-29T07:03:37;99472.34;;;20.60;100.00
13952;BME280;39535;52.192;9.886;2023-07-29T07:06:04;99468.44;;;20.42;100.00
13952;BME280;39535;52.192;9.886;2023-07-29T07:08:32;99442.25;;;20.37;100.00
13952;BME280;39535;52.192;9.886;2023-07-29T07:10:58;99445.91;;;20.48;100.00
13952;BME280;39535;52.192;9.886;2023-07-29T07:13:25;99452.41;;;20.55;100.00
13952;BME280;39535;52.192;9.886;2023-07-29T07:15:54;99450.31;;;20.60;100.00
13952;BME280;39535;52.192;9.886;2023-07-29T07:18:20;99452.13;;;20.59;100.00
13952;BME280;39535;52.192;9.886;2023-07-29T07:20:47;99443.31;;;20.35;100.00
13952;BME280;39535;52.192;9.886;2023-07-29T07:23:14;99447.59;;;20.49;100.00
13952;BME280;39535;52.192;9.886;2023-07-29T07:25:42;99429.81;;;20.27;100.00
13952;BME280;39535;52.192;9.886;2023-07-29T07:28:08;99423.56;;;20.39;100.00
13952;BME280;39535;52.192;9.886;2023-07-29T07:30:35;99431.69;;;20.49;100.00
13952;BME280;39535;52.192;9.886;2023-07-29T07:33:05;99437.34;;;20.55;100.00
13952;BME280;39535;52.192;9.886;2023-07-29T07:35:31;99441.81;;;20.43;100.00
13952;BME280;39535;52.192;9.886;2023-07-29T07:37:58;99435.75;;;20.41;100.00
13952;BME280;39535;52.192;9.886;2023-07-29T07:40:27;99451.22;;;20.48;100.00
13952;BME280;39535;52.192;9.886;2023-07-29T07:42:54;99450.22;;;20.49;100.00
13952;BME280;39535;52.192;9.886;2023-07-29T07:45:21;99448.50;;;20.60;100.00
13952;BME280;39535;52.192;9.886;2023-07-29T07:47:47;99449.81;;;20.66;100.00
13952;BME280;39535;52.192;9.886;2023-07-29T07:50:14;99466.94;;;20.62;100.00
13952;BME280;39535;52.192;9.886;2023-07-29T07:52:40;99449.25;;;20.74;100.00
13952;BME280;39535;52.192;9.886;2023-07-29T07:55:07;99431.28;;;20.89;100.00
13952;BME280;39535;52.192;9.886;2023-07-29T07:57:34;99446.00;;;20.93;100.00
13952;BME280;39535;52.192;9.886;2023-07-29T08:00:02;99436.94;;;21.07;100.00
13952;BME280;39535;52.192;9.886;2023-07-29T08:02:29;99444.69;;;21.21;100.00
13952;BME280;39535;52.192;9.886;2023-07-29T08:04:56;99443.22;;;21.28;100.00
13952;BME280;39535;52.192;9.886;2023-07-29T08:07:22;99468.81;;;21.29;100.00
13952;BME280;39535;52.192;9.886;2023-07-29T08:09:48;99483.88;;;21.29;100.00
13952;BME280;39535;52.192;9.886;2023-07-29T08:12:15;99486.91;;;21.35;100.00
13952;BME280;39535;52.192;9.886;2023-07-29T08:14:41;99490.66;;;21.33;100.00
13952;BME280;39535;52.192;9.886;2023-07-29T08:17:09;99505.22;;;21.38;100.00
13952;BME280;39535;52.192;9.886;2023-07-29T08:19:35;99519.47;;;21.26;100.00
13952;BME280;39535;52.192;9.886;2023-07-29T08:22:02;99503.94;;;21.33;100.00
13952;BME280;39535;52.192;9.886;2023-07-29T08:24:29;99506.66;;;21.42;100.00
13952;BME280;39535;52.192;9.886;2023-07-29T08:26:55;99526.59;;;21.26;100.00
13952;BME280;39535;52.192;9.886;2023-07-29T08:29:22;99515.16;;;21.25;100.00
13952;BME280;39535;52.192;9.886;2023-07-29T08:31:48;99501.72;;;21.38;100.00
13952;BME280;39535;52.192;9.886;2023-07-29T08:34:17;99529.97;;;21.28;100.00
13952;BME280;39535;52.192;9.886;2023-07-29T08:36:44;99517.66;;;21.38;100.00
13952;BME280;39535;52.192;9.886;2023-07-29T08:39:10;99517.09;;;21.46;100.00
13952;BME280;39535;52.192;9.886;2023-07-29T08:41:41;99533.00;;;21.23;100.00
13952;BME280;39535;52.192;9.886;2023-07-29T08:44:12;99520.81;;;21.32;100.00
13952;BME280;39535;52.192;9.886;2023-07-29T08:46:44;99515.00;;;21.27;100.00
13952;BME280;39535;52.192;9.886;2023-07-29T08:49:11;99506.81;;;21.07;100.00
13952;BME280;39535;52.192;9.886;2023-07-29T08:51:41;99476.41;;;21.00;100.00
13952;BME280;39535;52.192;9.886;2023-07-29T08:54:09;99482.94;;;21.07;100.00
13952;BME280;39535;52.192;9.886;2023-07-29T08:56:36;99492.19;;;21.13;100.00
13952;BME280;39535;52.192;9.886;2023-07-29T08:59:03;99516.44;;;21.08;100.00
13952;BME280;39535;52.192;9.886;2023-07-29T09:01:30;99525.88;;;21.01;100.00
13952;BME280;39535;52.192;9.886;2023-07-29T09:03:57;99512.84;;;21.09;100.00
13952;BME280;39535;52.192;9.886;2023-07-29T09:06:24;99509.34;;;21.20;100.00
13952;BME280;39535;52.192;9.886;2023-07-29T09:08:54;99517.31;;;21.20;100.00
13952;BME280;39535;52.192;9.886;2023-07-29T09:11:21;99531.28;;;21.22;100.00
13952;BME280;39535;52.192;9.886;2023-07-29T09:13:48;99543.59;;;21.12;100.00
13952;BME280;39535;52.192;9.886;2023-07-29T09:16:15;99537.19;;;21.14;100.00
13952;BME280;39535;52.192;9.886;2023-07-29T09:18:41;99532.75;;;21.26;100.00
13952;BME280;39535;52.192;9.886;2023-07-29T09:21:08;99525.25;;;21.20;100.00
13952;BME280;39535;52.192;9.886;2023-07-29T09:23:41;99537.72;;;21.31;100.00
13952;BME280;39535;52.192;9.886;2023-07-29T09:26:09;99538.56;;;21.31;100.00
13952;BME280;39535;52.192;9.886;2023-07-29T09:28:37;99542.69;;;21.47;100.00
13952;BME280;39535;52.192;9.886;2023-07-29T09:31:04;99543.88;;;21.54;100.00
13952;BME280;39535;52.192;9.886;2023-07-29T09:33:33;99524.91;;;21.70;100.00
13952;BME280;39535;52.192;9.886;2023-07-29T09:36:02;99548.09;;;21.79;100.00
13952;BME280;39535;52.192;9.886;2023-07-29T09:38:29;99582.97;;;21.86;98.60
13952;BME280;39535;52.192;9.886;2023-07-29T09:40:56;99597.38;;;21.83;97.33
13952;BME280;39535;52.192;9.886;2023-07-29T09:43:28;99595.16;;;21.88;97.97
13952;BME280;39535;52.192;9.886;2023-07-29T09:45:54;99590.34;;;22.05;98.50
13952;BME280;39535;52.192;9.886;2023-07-29T09:48:22;99624.78;;;22.06;94.52
13952;BME280;39535;52.192;9.886;2023-07-29T09:50:49;99671.03;;;21.92;92.97
13952;BME280;39535;52.192;9.886;2023-07-29T09:53:16;99668.84;;;21.86;93.09
13952;BME280;39535;52.192;9.886;2023-07-29T09:55:46;99668.25;;;21.71;94.19
13952;BME280;39535;52.192;9.886;2023-07-29T09:58:13;99654.59;;;21.87;94.26
13952;BME280;39535;52.192;9.886;2023-07-29T10:00:41;99677.91;;;21.95;93.50
13952;BME280;39535;52.192;9.886;2023-07-29T10:03:08;99676.59;;;21.89;92.82
13952;BME280;39535;52.192;9.886;2023-07-29T10:05:34;99693.16;;;21.93;91.86
13952;BME280;39535;52.192;9.886;2023-07-29T10:08:01;99679.59;;;22.07;92.24
13952;BME280;39535;52.192;9.886;2023-07-29T10:10:28;99724.56;;;22.10;89.37
13952;BME280;39535;52.192;9.886;2023-07-29T10:12:54;99763.22;;;22.14;87.09
13952;BME280;39535;52.192;9.886;2023-07-29T10:15:22;99771.00;;;22.29;87.18
13952;BME280;39535;52.192;9.886;2023-07-29T10:17:51;99771.56;;;22.21;87.10
13952;BME280;39535;52.192;9.886;2023-07-29T10:20:18;99768.34;;;22.40;87.16
13952;BME280;39535;52.192;9.886;2023-07-29T10:22:47;99802.06;;;22.28;85.27
13952;BME280;39535;52.192;9.886;2023-07-29T10:25:16;99775.81;;;22.57;87.35
13952;BME280;39535;52.192;9.886;2023-07-29T10:27:47;99790.09;;;22.68;85.07
13952;BME280;39535;52.192;9.886;2023-07-29T10:30:14;99851.75;;;22.73;82.25
13952;BME280;39535;52.192;9.886;2023-07-29T10:32:42;99920.56;;;22.66;78.76
13952;BME280;39535;52.192;9.886;2023-07-29T10:35:11;99926.13;;;22.74;80.16
13952;BME280;39535;52.192;9.886;2023-07-29T10:37:39;99961.22;;;22.91;77.37
13952;BME280;39535;52.192;9.886;2023-07-29T10:40:08;100018.00;;;23.03;74.96
13952;BME280;39535;52.192;9.886;2023-07-29T10:42:35;100036.78;;;23.12;74.76
13952;BME280;39535;52.192;9.886;2023-07-29T10:45:17;100058.44;;;23.08;73.96
13952;BME280;39535;52.192;9.886;2023-07-29T10:47:44;100038.97;;;23.18;75.66
13952;BME280;39535;52.192;9.886;2023-07-29T10:50:18;100083.75;;;23.25;73.03
13952;BME280;39535;52.192;9.886;2023-07-29T10:52:48;100170.03;;;23.11;67.48
13952;BME280;39535;52.192;9.886;2023-07-29T10:55:34;100164.06;;;23.31;70.76
13952;BME280;39535;52.192;9.886;2023-07-29T10:58:11;100192.34;;;23.21;69.08
13952;BME280;39535;52.192;9.886;2023-07-29T11:00:38;100184.63;;;23.29;68.92
13952;BME280;39535;52.192;9.886;2023-07-29T11:03:06;100212.94;;;23.30;68.39
13952;BME280;39535;52.192;9.886;2023-07-29T11:05:49;100254.19;;;23.13;66.96
13952;BME280;39535;52.192;9.886;2023-07-29T11:08:17;100221.19;;;23.03;69.12
13952;BME280;39535;52.192;9.886;2023-07-29T11:10:43;100207.56;;;22.71;69.32
13952;BME280;39535;52.192;9.886;2023-07-29T11:13:17;100167.66;;;22.71;70.10
13952;BME280;39535;52.192;9.886;2023-07-29T11:15:46;100127.66;;;22.48;71.62
13952;BME280;39535;52.192;9.886;2023-07-29T11:18:13;100104.22;;;22.29;72.04
13952;BME280;39535;52.192;9.886;2023-07-29T11:20:56;100078.59;;;22.28;72.70
13952;BME280;39535;52.192;9.886;2023-07-29T11:23:29;100087.06;;;22.33;71.16
13952;BME280;39535;52.192;9.886;2023-07-29T11:25:56;100121.16;;;22.52;69.80
13952;BME280;39535;52.192;9.886;2023-07-29T11:28:23;100142.16;;;22.68;69.00
13952;BME280;39535;52.192;9.886;2023-07-29T11:30:50;100148.16;;;22.94;68.69
13952;BME280;39535;52.192;9.886;2023-07-29T11:33:18;100168.72;;;23.16;66.36
13952;BME280;39535;52.192;9.886;2023-07-29T11:35:44;100312.34;;;23.31;60.80
13952;BME280;39535;52.192;9.886;2023-07-29T11:38:16;100396.34;;;23.72;60.11
13952;BME280;39535;52.192;9.886;2023-07-29T11:40:43;100475.13;;;24.24;56.84
13952;BME280;39535;52.192;9.886;2023-07-29T11:43:17;100590.81;;;24.83;53.32
13952;BME280;39535;52.192;9.886;2023-07-29T11:45:44;100666.66;;;25.15;52.68
13952;BME280;39535;52.192;9.886;2023-07-29T11:48:11;100695.16;;;25.15;52.76
13952;BME280;39535;52.192;9.886;2023-07-29T11:50:37;100677.19;;;25.17;53.85
13952;BME280;39535;52.192;9.886;2023-07-29T11:53:04;100666.25;;;25.55;53.37
13952;BME280;39535;52.192;9.886;2023-07-29T11:55:33;100663.94;;;25.40;53.27
13952;BME280;39535;52.192;9.886;2023-07-29T11:58:01;100710.81;;;25.08;51.63
13952;BME280;39535;52.192;9.886;2023-07-29T12:00:28;100709.72;;;25.11;51.69
13952;BME280;39535;52.192;9.886;2023-07-29T12:02:54;100708.41;;;25.52;51.75
13952;BME280;39535;52.192;9.886;2023-07-29T12:05:22;100737.09;;;24.90;51.08
13952;BME280;39535;52.192;9.886;2023-07-29T12:07:49;100707.94;;;24.87;52.62
13952;BME280;39535;52.192;9.886;2023-07-29T12:10:16;100704.81;;;24.69;52.10
13952;BME280;39535;52.192;9.886;2023-07-29T12:12:46;100697.16;;;24.89;51.26
13952;BME280;39535;52.192;9.886;2023-07-29T12:15:13;100722.22;;;24.75;50.40
13952;BME280;39535;52.192;9.886;2023-07-29T12:17:48;100717.03;;;24.85;51.60
13952;BME280;39535;52.192;9.886;2023-07-29T12:20:14;100710.72;;;24.25;52.00
13952;BME280;39535;52.192;9.886;2023-07-29T12:22:41;100700.56;;;24.67;51.24
13952;BME280;39535;52.192;9.886;2023-07-29T12:25:08;100740.41;;;24.70;49.71
13952;BME280;39535;52.192;9.886;2023-07-29T12:27:34;100757.66;;;24.27;50.01
13952;BME280;39535;52.192;9.886;2023-07-29T12:30:03;100756.63;;;24.04;50.81
13952;BME280;39535;52.192;9.886;2023-07-29T12:32:29;100726.94;;;24.22;50.79
13952;BME280;39535;52.192;9.886;2023-07-29T12:34:56;100725.41;;;24.43;49.59
13952;BME280;39535;52.192;9.886;2023-07-29T12:37:31;100729.53;;;24.60;49.86
13952;BME280;39535;52.192;9.886;2023-07-29T12:39:57;100774.69;;;24.63;48.58
13952;BME280;39535;52.192;9.886;2023-07-29T12:42:24;100781.66;;;24.53;49.12
13952;BME280;39535;52.192;9.886;2023-07-29T12:44:50;100774.25;;;24.07;50.43
13952;BME280;39535;52.192;9.886;2023-07-29T12:47:18;100776.91;;;24.07;49.38
13952;BME280;39535;52.192;9.886;2023-07-29T12:49:44;100766.72;;;24.37;49.74
13952;BME280;39535;52.192;9.886;2023-07-29T12:52:11;100761.88;;;24.55;49.29
13952;BME280;39535;52.192;9.886;2023-07-29T12:54:37;100782.53;;;24.28;48.07
13952;BME280;39535;52.192;9.886;2023-07-29T12:57:05;100804.38;;;23.69;48.89